createdAt,value
2022-10-15T00:02:20.091Z,21.26
2022-10-15T00:07:23.641Z,21.18
2022-10-15T00:12:27.378Z,21.14
2022-10-15T00:17:31.123Z,21.16
2022-10-15T00:22:34.375Z,21.22
2022-10-15T00:27:51.398Z,21.23
2022-10-15T00:32:55.175Z,21.23
2022-10-15T00:37:59.153Z,21.21
2022-10-15T00:43:03.065Z,21.17
2022-10-15T00:48:10.515Z,21.17
2022-10-15T00:53:17.516Z,21.21
2022-10-15T00:58:23.322Z,21.18
2022-10-15T01:03:38.712Z,21.13
2022-10-15T01:08:42.663Z,21.06
2022-10-15T01:14:34.699Z,21.02
2022-10-15T01:19:38.068Z,20.98
2022-10-15T01:25:34.219Z,20.96
2022-10-15T01:30:56.324Z,20.91
2022-10-15T01:36:33.314Z,20.84
2022-10-15T01:41:56.788Z,20.82
2022-10-15T01:47:19.762Z,20.81
2022-10-15T01:57:36.665Z,20.81
2022-10-15T02:02:42.640Z,20.88
2022-10-15T02:08:20.232Z,20.96
2022-10-15T02:13:57.526Z,21.04
2022-10-15T02:19:06.899Z,21.13
2022-10-15T02:24:25.786Z,21.18
2022-10-15T02:29:44.836Z,21.25
2022-10-15T02:34:54.662Z,21.30
2022-10-15T02:39:58.087Z,21.34
2022-10-15T02:45:01.843Z,21.34
2022-10-15T02:50:06.586Z,21.27
2022-10-15T02:55:10.318Z,21.25
2022-10-15T03:00:14.536Z,21.23
2022-10-15T03:05:18.263Z,21.22
2022-10-15T03:10:46.854Z,21.19
2022-10-15T03:15:50.743Z,21.17
2022-10-15T03:20:56.051Z,21.16
2022-10-15T03:25:59.739Z,21.13
2022-10-15T03:31:03.545Z,21.13
2022-10-15T03:36:07.370Z,21.11
2022-10-15T03:41:11.992Z,21.07
2022-10-15T03:46:18.990Z,21.04
2022-10-15T03:51:51.120Z,21.00
2022-10-15T03:56:56.861Z,20.99
2022-10-15T04:02:06.416Z,20.97
2022-10-15T04:07:11.133Z,20.97
2022-10-15T04:12:15.408Z,20.99
2022-10-15T04:17:18.893Z,21.03
2022-10-15T04:22:24.165Z,21.07
2022-10-15T04:27:48.363Z,21.11
2022-10-15T04:32:55.103Z,21.12
2022-10-15T04:37:59.096Z,21.15
2022-10-15T04:43:03.556Z,21.19
2022-10-15T04:48:07.162Z,21.21
2022-10-15T04:53:11.703Z,21.26
2022-10-15T04:58:16.998Z,21.32
2022-10-15T05:03:20.691Z,21.41
2022-10-15T05:08:31.675Z,21.54
2022-10-15T05:13:58.364Z,21.79
2022-10-15T05:19:05.812Z,22.27
2022-10-15T05:24:10.766Z,22.57
2022-10-15T05:29:46.744Z,22.70
2022-10-15T05:34:51.485Z,22.69
2022-10-15T05:39:55.409Z,22.70
2022-10-15T05:44:59.375Z,22.75
2022-10-15T05:50:02.888Z,22.80
2022-10-15T05:55:16.183Z,22.86
2022-10-15T06:00:19.860Z,23.03
2022-10-15T06:05:29.188Z,23.20
2022-10-15T06:10:36.087Z,23.28
2022-10-15T06:15:41.316Z,23.37
2022-10-15T06:20:54.340Z,23.45
2022-10-15T06:26:05.884Z,23.52
2022-10-15T06:31:09.466Z,23.58
2022-10-15T06:36:12.950Z,23.66
2022-10-15T06:41:16.571Z,23.77
2022-10-15T06:46:20.220Z,23.90
2022-10-15T06:51:23.867Z,24.17
2022-10-15T06:56:27.225Z,24.34
2022-10-15T07:01:30.426Z,24.42
2022-10-15T07:06:36.034Z,24.62
2022-10-15T07:11:42.979Z,24.78
2022-10-15T07:16:46.480Z,24.82
2022-10-15T07:21:50.675Z,24.91
2022-10-15T07:26:54.492Z,24.96
2022-10-15T07:31:58.417Z,24.87
2022-10-15T07:37:02.475Z,24.80
2022-10-15T07:42:05.881Z,24.91
2022-10-15T07:47:09.288Z,24.96
2022-10-15T07:52:12.787Z,24.87
2022-10-15T07:57:18.061Z,24.73
2022-10-15T08:02:22.782Z,24.57
2022-10-15T08:07:26.323Z,24.40
2022-10-15T08:12:29.573Z,24.27
2022-10-15T08:17:32.972Z,24.27
2022-10-15T08:22:36.949Z,24.28
2022-10-15T08:27:40.582Z,24.30
2022-10-15T08:32:43.977Z,24.32
2022-10-15T08:37:54.840Z,24.30
2022-10-15T08:42:59.874Z,24.47
2022-10-15T08:48:23.882Z,24.69
2022-10-15T08:53:30.571Z,24.88
2022-10-15T08:58:56.689Z,24.91
2022-10-15T09:04:18.325Z,24.99
2022-10-15T09:09:48.167Z,25.05
2022-10-15T09:14:53.798Z,25.08
2022-10-15T09:20:02.729Z,25.11
2022-10-15T09:25:18.735Z,25.17
2022-10-15T09:30:38.040Z,25.15
2022-10-15T09:35:54.162Z,25.08
2022-10-15T09:41:06.243Z,25.18
2022-10-15T09:46:11.292Z,25.22
2022-10-15T09:51:45.357Z,25.28
2022-10-15T09:56:55.747Z,25.22
2022-10-15T10:02:19.677Z,25.11
2022-10-15T10:07:37.802Z,25.15
2022-10-15T10:12:46.110Z,25.15
2022-10-15T10:17:55.015Z,25.14
2022-10-15T10:23:01.040Z,25.17
2022-10-15T10:28:11.751Z,25.04
2022-10-15T10:33:25.467Z,24.96
2022-10-15T10:38:37.214Z,24.99
2022-10-15T10:43:54.397Z,25.04
2022-10-15T10:48:57.777Z,25.12
2022-10-15T10:54:03.594Z,25.10
2022-10-15T10:59:35.960Z,25.03
2022-10-15T11:04:40.481Z,25.11
2022-10-15T11:09:59.002Z,25.10
2022-10-15T11:15:25.563Z,25.11
2022-10-15T11:20:49.918Z,25.14
2022-10-15T11:26:04.610Z,25.12
2022-10-15T11:31:20.761Z,25.11
2022-10-15T11:36:32.796Z,25.09
2022-10-15T11:42:03.683Z,25.10
2022-10-15T11:47:25.732Z,25.03
2022-10-15T11:52:48.149Z,24.99
2022-10-15T11:57:58.188Z,25.03
2022-10-15T12:03:15.140Z,25.10
2022-10-15T12:08:20.192Z,25.11
2022-10-15T12:13:26.831Z,25.12
2022-10-15T12:18:39.797Z,25.09
2022-10-15T12:23:43.544Z,25.08
2022-10-15T12:28:53.905Z,25.11
2022-10-15T12:33:58.127Z,25.10
2022-10-15T12:39:28.064Z,25.05
2022-10-15T12:44:49.813Z,24.98
2022-10-15T12:50:06.367Z,25.00
2022-10-15T12:55:33.327Z,24.99
2022-10-15T13:00:39.894Z,24.92
2022-10-15T13:05:47.910Z,24.86
2022-10-15T13:10:59.460Z,24.82
2022-10-15T13:16:09.513Z,24.80
2022-10-15T13:21:14.012Z,24.80
2022-10-15T13:26:27.646Z,24.78
2022-10-15T13:31:35.339Z,24.74
2022-10-15T13:36:39.468Z,24.70
2022-10-15T13:41:43.640Z,24.63
2022-10-15T13:46:47.542Z,24.48
2022-10-15T13:51:53.991Z,24.39
2022-10-15T13:57:00.007Z,24.35
2022-10-15T14:02:03.751Z,24.29
2022-10-15T14:07:24.921Z,24.20
2022-10-15T14:12:28.516Z,24.14
2022-10-15T14:17:35.274Z,24.08
2022-10-15T14:22:39.119Z,24.03
2022-10-15T14:27:48.113Z,23.93
2022-10-15T14:32:51.893Z,23.82
2022-10-15T14:37:59.993Z,23.78
2022-10-15T14:43:15.046Z,23.71
2022-10-15T14:48:39.719Z,23.61
2022-10-15T14:53:47.159Z,23.50
2022-10-15T14:58:54.244Z,23.40
2022-10-15T15:03:57.603Z,23.28
2022-10-15T15:09:00.887Z,23.17
2022-10-15T15:14:04.514Z,23.05
2022-10-15T15:19:09.244Z,22.95
2022-10-15T15:24:12.750Z,22.88
2022-10-15T15:29:16.496Z,22.81
2022-10-15T15:34:20.585Z,22.75
2022-10-15T15:39:24.193Z,22.66
2022-10-15T15:44:27.499Z,22.60
2022-10-15T15:49:30.779Z,22.58
2022-10-15T15:54:37.646Z,22.56
2022-10-15T15:59:44.570Z,22.49
2022-10-15T16:04:47.951Z,22.47
2022-10-15T16:09:51.273Z,22.45
2022-10-15T16:14:55.037Z,22.43
2022-10-15T16:19:58.578Z,22.42
2022-10-15T16:25:02.510Z,22.37
2022-10-15T16:30:07.047Z,22.35
2022-10-15T16:35:10.743Z,22.34
2022-10-15T16:40:16.234Z,22.32
2022-10-15T16:45:19.629Z,22.28
2022-10-15T16:50:24.853Z,22.25
2022-10-15T16:55:31.798Z,22.25
2022-10-15T17:00:35.830Z,22.25
2022-10-15T17:05:39.311Z,22.24
2022-10-15T17:10:43.083Z,22.25
2022-10-15T17:15:48.340Z,22.23
2022-10-15T17:20:51.951Z,22.23
2022-10-15T17:26:04.287Z,22.21
2022-10-15T17:31:13.671Z,22.20
2022-10-15T17:36:21.833Z,22.19
2022-10-15T17:41:28.916Z,22.17
2022-10-15T17:46:33.706Z,22.15
2022-10-15T17:51:39.667Z,22.17
2022-10-15T17:56:43.283Z,22.15
2022-10-15T18:01:58.461Z,22.14
2022-10-15T18:07:02.936Z,22.12
2022-10-15T18:12:06.157Z,22.08
2022-10-15T18:17:09.571Z,22.06
2022-10-15T18:22:13.041Z,22.05
2022-10-15T18:27:17.141Z,22.02
2022-10-15T18:32:21.485Z,22.00
2022-10-15T18:37:25.388Z,22.01
2022-10-15T18:42:28.907Z,21.97
2022-10-15T18:47:32.044Z,22.01
2022-10-15T18:52:39.827Z,22.01
2022-10-15T18:57:48.008Z,21.98
2022-10-15T19:02:51.755Z,21.98
2022-10-15T19:07:55.075Z,21.97
2022-10-15T19:12:58.942Z,22.00
2022-10-15T19:18:04.108Z,21.97
2022-10-15T19:23:07.857Z,21.93
2022-10-15T19:28:11.328Z,21.91
2022-10-15T19:33:17.756Z,21.88
2022-10-15T19:38:22.615Z,21.89
2022-10-15T19:43:26.029Z,21.87
2022-10-15T19:48:29.523Z,21.86
2022-10-15T19:53:33.569Z,21.79
2022-10-15T19:58:39.649Z,21.77
2022-10-15T20:03:43.107Z,21.82
2022-10-15T20:08:47.090Z,21.83
2022-10-15T20:13:51.099Z,21.86
2022-10-15T20:18:54.451Z,21.89
2022-10-15T20:23:57.678Z,21.90
2022-10-15T20:29:01.419Z,21.88
2022-10-15T20:34:04.765Z,21.80
2022-10-15T20:39:08.297Z,21.76
2022-10-15T20:44:12.388Z,21.76
2022-10-15T20:49:21.716Z,21.76
2022-10-15T20:54:25.089Z,21.78
2022-10-15T20:59:30.349Z,21.83
2022-10-15T21:04:34.213Z,21.80
2022-10-15T21:09:38.850Z,21.84
2022-10-15T21:14:42.324Z,21.84
2022-10-15T21:19:51.815Z,21.86
2022-10-15T21:24:57.015Z,21.81
2022-10-15T21:30:00.560Z,21.77
2022-10-15T21:35:05.792Z,21.88
2022-10-15T21:40:11.526Z,21.96
2022-10-15T21:45:15.217Z,21.99
2022-10-15T21:50:18.470Z,22.00
2022-10-15T21:55:21.845Z,21.97
2022-10-15T22:00:25.844Z,21.99
2022-10-15T22:05:29.389Z,21.99
2022-10-15T22:10:33.608Z,21.97
2022-10-15T22:15:38.285Z,22.02
2022-10-15T22:26:01.473Z,22.05
2022-10-15T22:31:10.613Z,22.05
2022-10-15T22:36:17.845Z,22.05
2022-10-15T22:41:23.434Z,22.06
2022-10-15T22:46:38.263Z,22.07
2022-10-15T22:51:48.558Z,22.06
2022-10-15T22:56:52.178Z,22.05
2022-10-15T23:01:56.281Z,22.05
2022-10-15T23:06:59.606Z,22.05
2022-10-15T23:12:03.210Z,22.09
2022-10-15T23:17:06.482Z,22.14
2022-10-15T23:22:12.618Z,22.15
2022-10-15T23:27:16.571Z,22.19
2022-10-15T23:32:22.714Z,22.18
2022-10-15T23:37:26.653Z,22.19
2022-10-15T23:42:30.686Z,22.21
2022-10-15T23:47:35.936Z,22.24
2022-10-15T23:52:39.272Z,22.25
2022-10-15T23:57:42.663Z,22.28
